Home   Weather   USA   Jackson   Past weeks
Flag for USA

Past Weather in Jackson, Wyoming, USA — August 2021

Currently: 42 °F. Clear. (Weather station: Jackson Hole, USA). See more current weather

August 2021 Weather in Jackson — Graph

°F

High & Low Weather Summary for August 2021

 TemperatureHumidityPressure
High89 °F (Aug 14, 3:56 pm)100% (Aug 3, 12:20 am)30.41 "Hg (Aug 3, 12:20 am)
Low33 °F (Aug 28, 5:56 am)11% (Aug 14, 5:56 pm)29.61 "Hg (Aug 17, 4:56 pm)
Average59 °F59%30.04 "Hg
* Reported Aug 1 12:56 am — Aug 31 11:56 pm, Jackson. Weather by CustomWeather, © 2022

Note: Actual official high and low records may vary slightly from our data, if they occured in-between our weather recording intervals... More about our weather records

Jackson Weather History for August 1, 2021

Scroll right to see more
 ConditionsComfort  
Time TempWeatherWind HumidityBarometerVisibility
12:56 am
Sun, Aug 1
59 °FPassing clouds.No wind87%30.24 "Hg10 mi
1:56 am58 °FOvercast.5 mph87%30.24 "Hg10 mi
2:56 am59 °FOvercast.3 mph81%30.24 "Hg10 mi
3:56 am60 °FOvercast.No wind75%30.24 "Hg10 mi
4:56 am59 °FOvercast.3 mph75%30.28 "Hg10 mi
5:56 am58 °FOvercast.No wind81%30.27 "Hg10 mi
6:56 am56 °FSunny.No wind77%30.27 "Hg10 mi
7:56 am60 °FSunny.No wind69%30.28 "Hg10 mi
8:56 am65 °FSunny.No wind61%30.28 "Hg10 mi
9:56 am69 °FSunny.No wind51%30.26 "Hg6 mi
10:56 am73 °FSunny.5 mph46%30.24 "Hg10 mi
11:56 am76 °FSunny.5 mph40%30.22 "Hg10 mi
12:56 pm77 °FPassing clouds.5 mph37%30.21 "Hg10 mi
1:56 pm81 °FSunny.7 mph30%30.17 "Hg10 mi
2:56 pm80 °FSunny.8 mph29%30.15 "Hg10 mi
3:56 pm83 °FPassing clouds.8 mph26%30.11 "Hg10 mi
4:56 pm82 °FPartly sunny.9 mph28%30.11 "Hg10 mi
5:56 pm82 °FMostly cloudy.10 mph26%30.10 "Hg10 mi
6:56 pm81 °FOvercast.No wind24%30.10 "Hg10 mi
7:56 pm77 °FSunny.No wind33%30.10 "Hg10 mi
8:56 pm73 °FClear.5 mph41%30.11 "Hg10 mi
9:56 pm69 °FPassing clouds.5 mph51%30.14 "Hg10 mi
10:56 pm69 °FOvercast.7 mph55%30.14 "Hg10 mi
11:56 pm67 °FOvercast.No wind59%30.14 "Hg10 mi
Weather by CustomWeather, © 2022

See weather overview